createdAt,value
2022-08-05T00:01:00.935Z,99664.41
2022-08-05T00:06:29.053Z,99658.09
2022-08-05T00:11:35.205Z,99648.63
2022-08-05T00:16:52.793Z,99647.56
2022-08-05T00:21:55.213Z,99643.06
2022-08-05T00:26:56.739Z,99643.41
2022-08-05T00:32:12.634Z,99642.03
2022-08-05T00:37:16.116Z,99640.84
2022-08-05T00:42:32.095Z,99638.44
2022-08-05T00:47:56.870Z,99636.53
2022-08-05T00:52:55.487Z,99634.59
2022-08-05T00:57:59.076Z,99630.69
2022-08-05T01:03:00.896Z,99632.09
2022-08-05T01:08:40.291Z,99635.38
2022-08-05T01:13:57.795Z,99630.16
2022-08-05T01:19:15.782Z,99619.41
2022-08-05T01:24:41.599Z,99624.69
2022-08-05T01:29:46.490Z,99628.25
2022-08-05T01:34:51.324Z,99616.28
2022-08-05T01:39:59.045Z,99610.38
2022-08-05T01:45:02.366Z,99616.41
2022-08-05T01:50:05.970Z,99611.09
2022-08-05T01:55:09.368Z,99608.91
2022-08-05T02:00:11.891Z,99606.47
2022-08-05T02:05:13.733Z,99605.69
2022-08-05T02:10:17.426Z,99593.84
2022-08-05T02:15:24.960Z,99594.81
2022-08-05T02:20:49.621Z,99589.88
2022-08-05T02:25:51.697Z,99581.31
2022-08-05T02:30:56.811Z,99575.00
2022-08-05T02:36:01.105Z,99562.94
2022-08-05T02:41:06.410Z,99564.88
2022-08-05T02:46:18.460Z,99559.03
2022-08-05T02:52:02.708Z,99563.19
2022-08-05T02:56:50.353Z,99550.50
2022-08-05T03:01:52.150Z,99547.47
2022-08-05T03:06:59.549Z,99557.09
2022-08-05T03:12:01.855Z,99552.81
2022-08-05T03:17:07.338Z,99559.38
2022-08-05T03:22:16.656Z,99564.88
2022-08-05T03:27:20.660Z,99564.94
2022-08-05T03:32:22.162Z,99567.56
2022-08-05T03:37:40.961Z,99574.69
2022-08-05T03:42:52.458Z,99580.84
2022-08-05T03:47:56.878Z,99579.47
2022-08-05T03:55:51.581Z,99575.06
2022-08-05T03:58:29.362Z,99591.03
2022-08-05T04:03:35.750Z,99594.94
2022-08-05T04:08:39.638Z,99602.88
2022-08-05T04:13:49.756Z,99598.84
2022-08-05T04:18:54.648Z,99596.91
2022-08-05T04:24:06.369Z,99598.78
2022-08-05T04:29:10.286Z,99602.13
2022-08-05T04:34:31.383Z,99607.03
2022-08-05T04:39:33.429Z,99598.53
2022-08-05T04:44:37.013Z,99610.38
2022-08-05T04:50:01.659Z,99620.88
2022-08-05T04:55:02.375Z,99622.50
2022-08-05T05:00:16.406Z,99622.22
2022-08-05T05:05:28.335Z,99626.91
2022-08-05T05:10:33.281Z,99619.41
2022-08-05T05:15:56.253Z,99617.25
2022-08-05T05:20:56.534Z,99607.94
2022-08-05T05:25:59.960Z,99615.38
2022-08-05T05:31:02.197Z,99622.28
2022-08-05T05:36:07.278Z,99625.84
2022-08-05T05:41:08.684Z,99617.88
2022-08-05T05:46:17.564Z,99621.41
2022-08-05T05:51:24.558Z,99618.97
2022-08-05T05:56:32.306Z,99620.81
2022-08-05T06:01:39.727Z,99625.50
2022-08-05T06:06:47.493Z,99645.38
2022-08-05T06:11:59.126Z,99642.88
2022-08-05T06:17:02.001Z,99661.28
2022-08-05T06:22:27.102Z,99705.31
2022-08-05T06:28:12.248Z,99686.50
2022-08-05T06:32:50.843Z,99714.38
2022-08-05T06:37:57.778Z,99699.13
2022-08-05T06:43:00.408Z,99702.66
2022-08-05T06:48:44.336Z,99702.94
2022-08-05T06:53:28.505Z,99720.63
2022-08-05T06:58:36.223Z,99731.88
2022-08-05T07:03:38.209Z,99724.88
2022-08-05T07:08:39.680Z,99718.84
2022-08-05T07:14:02.211Z,99718.34
2022-08-05T07:19:04.035Z,99723.78
2022-08-05T07:24:05.669Z,99730.13
2022-08-05T07:29:12.909Z,99748.03
2022-08-05T07:34:14.335Z,99753.81
2022-08-05T07:39:50.369Z,99760.44
2022-08-05T07:44:44.177Z,99776.19
2022-08-05T07:49:54.572Z,99768.19
2022-08-05T07:54:56.229Z,99790.19
2022-08-05T07:59:57.641Z,99795.34
2022-08-05T08:04:59.243Z,99789.78
2022-08-05T08:10:01.031Z,99795.06
2022-08-05T08:15:03.649Z,99812.72
2022-08-05T08:20:23.402Z,99811.63
2022-08-05T08:26:00.826Z,99824.28
2022-08-05T08:30:52.416Z,99835.03
2022-08-05T08:36:07.814Z,99838.63
2022-08-05T08:41:15.274Z,99826.75
2022-08-05T08:46:19.449Z,99825.09
2022-08-05T08:52:01.875Z,99819.59
2022-08-05T08:56:47.812Z,99825.34
2022-08-05T09:01:57.575Z,99843.00
2022-08-05T09:07:02.631Z,99839.34
2022-08-05T09:12:30.231Z,99839.41
2022-08-05T09:17:40.698Z,99825.03
2022-08-05T09:23:19.205Z,99827.75
2022-08-05T09:28:31.876Z,99820.91
2022-08-05T09:33:50.907Z,99838.53
2022-08-05T09:38:56.690Z,99839.09
2022-08-05T09:43:58.746Z,99835.56
2022-08-05T09:49:07.368Z,99823.88
2022-08-05T09:54:29.501Z,99820.28
2022-08-05T09:59:35.082Z,99817.84
2022-08-05T10:04:40.836Z,99831.66
2022-08-05T10:10:00.280Z,99824.72
2022-08-05T10:15:25.583Z,99809.06
2022-08-05T10:20:27.376Z,99817.28
2022-08-05T10:25:28.905Z,99815.28
2022-08-05T10:31:20.448Z,99799.56
2022-08-05T10:36:00.000Z,99811.16
2022-08-05T10:41:23.251Z,99803.97
2022-08-05T10:46:25.129Z,99799.00
2022-08-05T10:51:29.325Z,99799.00
2022-08-05T10:56:36.465Z,99796.78
2022-08-05T11:01:55.068Z,99800.94
2022-08-05T11:07:04.728Z,99801.03
2022-08-05T11:12:27.117Z,99797.09
2022-08-05T11:17:58.650Z,99800.66
2022-08-05T11:22:58.063Z,99810.28
2022-08-05T11:28:09.310Z,99806.53
2022-08-05T11:33:44.060Z,99811.81
2022-08-05T11:38:51.734Z,99794.16
2022-08-05T11:44:06.292Z,99799.63
2022-08-05T11:49:13.265Z,99806.03
2022-08-05T11:54:20.837Z,99806.03
2022-08-05T11:59:25.561Z,99792.31
2022-08-05T12:04:38.233Z,99788.41
2022-08-05T12:09:53.503Z,99777.94
2022-08-05T12:14:55.273Z,99786.59
2022-08-05T12:20:17.024Z,99775.25
2022-08-05T12:25:20.097Z,99771.44
2022-08-05T12:30:32.091Z,99771.97
2022-08-05T12:35:39.739Z,99763.44
2022-08-05T12:40:43.523Z,99766.38
2022-08-05T12:45:55.951Z,99754.31
2022-08-05T12:52:10.255Z,99755.47
2022-08-05T12:56:41.733Z,99749.56
2022-08-05T13:02:03.464Z,99733.59
2022-08-05T13:07:16.073Z,99730.34
2022-08-05T13:12:19.713Z,99737.25
2022-08-05T13:17:31.949Z,99730.09
2022-08-05T13:22:46.667Z,99725.69
2022-08-05T13:27:50.616Z,99728.53
2022-08-05T13:32:52.545Z,99728.72
2022-08-05T13:37:57.865Z,99730.91
2022-08-05T13:43:06.497Z,99746.69
2022-08-05T13:49:00.292Z,99746.16
2022-08-05T13:53:35.147Z,99745.53
2022-08-05T13:58:53.144Z,99735.31
2022-08-05T14:04:13.818Z,99733.16
2022-08-05T14:09:16.173Z,99736.38
2022-08-05T14:14:23.315Z,99729.47
2022-08-05T14:19:27.534Z,99712.03
2022-08-05T14:24:30.556Z,99707.44
2022-08-05T14:29:32.665Z,99717.31
2022-08-05T14:34:35.830Z,99702.94
2022-08-05T14:39:49.266Z,99695.78
2022-08-05T14:44:51.825Z,99697.16
2022-08-05T14:49:59.157Z,99702.41
2022-08-05T14:55:02.157Z,99695.72
2022-08-05T15:00:04.086Z,99694.66
2022-08-05T15:05:13.175Z,99683.91
2022-08-05T15:10:14.861Z,99689.44
2022-08-05T15:15:16.622Z,99697.41
2022-08-05T15:20:19.314Z,99695.41
2022-08-05T15:25:40.969Z,99688.88
2022-08-05T15:30:47.689Z,99708.44
2022-08-05T15:35:54.538Z,99698.31
2022-08-05T15:41:23.261Z,99708.16
2022-08-05T15:46:20.444Z,99697.91
2022-08-05T15:52:09.950Z,99704.84
2022-08-05T15:56:47.697Z,99708.69
2022-08-05T16:01:52.247Z,99705.09
2022-08-05T16:06:55.788Z,99691.56
2022-08-05T16:11:57.469Z,99706.19
2022-08-05T16:16:58.993Z,99711.38
2022-08-05T16:22:03.414Z,99716.97
2022-08-05T16:27:05.130Z,99722.97
2022-08-05T16:32:09.751Z,99726.31
2022-08-05T16:38:03.236Z,99739.13
2022-08-05T16:42:34.411Z,99729.66
2022-08-05T16:47:48.446Z,99745.97
2022-08-05T16:52:57.044Z,99773.03
2022-08-05T16:58:01.356Z,99768.50
2022-08-05T17:03:15.237Z,99776.00
2022-08-05T17:08:36.134Z,99791.41
2022-08-05T17:13:44.436Z,99797.50
2022-08-05T17:18:46.526Z,99806.38
2022-08-05T17:24:04.327Z,99818.81
2022-08-05T17:29:11.438Z,99825.66
2022-08-05T17:34:12.854Z,99832.28
2022-08-05T17:39:24.509Z,99841.66
2022-08-05T17:44:35.921Z,99859.88
2022-08-05T17:49:51.982Z,99886.94
2022-08-05T17:54:58.932Z,99917.31
2022-08-05T18:00:05.418Z,99933.88
2022-08-05T18:05:08.182Z,99958.47
2022-08-05T18:10:11.318Z,99975.59
2022-08-05T18:15:13.057Z,100005.91
2022-08-05T18:20:15.388Z,100027.47
2022-08-05T18:25:17.557Z,100063.88
2022-08-05T18:30:19.652Z,100074.09
2022-08-05T18:35:21.125Z,100083.44
2022-08-05T18:41:56.779Z,100100.00
2022-08-05T18:46:04.258Z,100104.69
2022-08-05T18:52:04.929Z,100120.97
2022-08-05T18:56:51.221Z,100136.44
2022-08-05T19:01:56.983Z,100149.16
2022-08-05T19:06:59.977Z,100148.34
2022-08-05T19:12:01.759Z,100151.06
2022-08-05T19:17:03.188Z,100156.88
2022-08-05T19:22:09.183Z,100161.03
2022-08-05T19:27:12.181Z,100174.25
2022-08-05T19:32:14.889Z,100181.44
2022-08-05T19:37:17.200Z,100210.09
2022-08-05T19:42:19.057Z,100234.44
2022-08-05T19:47:37.630Z,100240.75
2022-08-05T19:52:39.413Z,100254.53
2022-08-05T19:57:49.216Z,100242.66
2022-08-05T20:03:08.463Z,100241.84
2022-08-05T20:08:10.749Z,100249.88
2022-08-05T20:13:12.184Z,100260.63
2022-08-05T20:18:33.156Z,100259.50
2022-08-05T20:23:40.384Z,100282.69
2022-08-05T20:28:55.838Z,100299.22
2022-08-05T20:33:57.599Z,100291.81
2022-08-05T20:38:59.162Z,100300.63
2022-08-05T20:44:17.888Z,100309.97
2022-08-05T20:49:24.437Z,100319.41
2022-08-05T20:54:43.127Z,100323.25
2022-08-05T21:00:19.783Z,100337.03
2022-08-05T21:05:11.186Z,100336.19
2022-08-05T21:10:13.792Z,100352.75
2022-08-05T21:15:16.170Z,100362.13
2022-08-05T21:20:33.168Z,100385.56
2022-08-05T21:25:35.158Z,100389.72
2022-08-05T21:30:38.101Z,100409.31
2022-08-05T21:35:55.617Z,100433.31
2022-08-05T21:41:00.493Z,100426.94
2022-08-05T21:46:01.905Z,100452.81
2022-08-05T21:52:16.257Z,100475.41
2022-08-05T21:56:27.040Z,100477.56
2022-08-05T22:01:28.606Z,100463.75
2022-08-05T22:06:39.657Z,100434.81
2022-08-05T22:11:41.289Z,100459.34
2022-08-05T22:16:51.301Z,100444.47
2022-08-05T22:21:54.261Z,100469.22
2022-08-05T22:27:17.278Z,100459.84
2022-08-05T22:32:19.065Z,100502.31
2022-08-05T22:37:20.826Z,100535.38
2022-08-05T22:42:26.085Z,100586.38
2022-08-05T22:47:30.674Z,100573.41
2022-08-05T22:52:34.303Z,100561.00
2022-08-05T22:57:36.453Z,100565.97
2022-08-05T23:02:46.494Z,100526.78
2022-08-05T23:07:49.664Z,100541.41
2022-08-05T23:12:54.679Z,100527.09
2022-08-05T23:18:01.671Z,100529.53
2022-08-05T23:23:08.062Z,100526.22
2022-08-05T23:28:10.158Z,100500.28
2022-08-05T23:33:16.022Z,100515.19
2022-08-05T23:38:20.461Z,100534.19
2022-08-05T23:43:24.827Z,100551.03
2022-08-05T23:48:38.994Z,100564.25
2022-08-05T23:53:47.047Z,100541.59
2022-08-05T23:58:48.576Z,100574.69
